sensor_id;sensor_type;location;lat;lon;timestamp;pressure;altitude;pressure_sealevel;temperature;humidity
41222;BME280;26952;42.884;23.918;2022-09-13T00:00:19;95659.41;;;12.14;100.00
41222;BME280;26952;42.884;23.918;2022-09-13T00:02:44;95642.88;;;11.97;100.00
41222;BME280;26952;42.884;23.918;2022-09-13T00:05:10;95650.00;;;11.97;100.00
41222;BME280;26952;42.884;23.918;2022-09-13T00:07:35;95648.72;;;12.07;100.00
41222;BME280;26952;42.884;23.918;2022-09-13T00:10:01;95658.28;;;12.23;100.00
41222;BME280;26952;42.884;23.918;2022-09-13T00:12:26;95645.31;;;12.13;100.00
41222;BME280;26952;42.884;23.918;2022-09-13T00:14:52;95661.50;;;12.18;100.00
41222;BME280;26952;42.884;23.918;2022-09-13T00:17:17;95629.81;;;11.96;100.00
41222;BME280;26952;42.884;23.918;2022-09-13T00:19:42;95650.66;;;11.99;100.00
41222;BME280;26952;42.884;23.918;2022-09-13T00:22:08;95643.25;;;11.94;100.00
41222;BME280;26952;42.884;23.918;2022-09-13T00:24:33;95612.00;;;11.75;100.00
41222;BME280;26952;42.884;23.918;2022-09-13T00:26:59;95632.00;;;11.92;100.00
41222;BME280;26952;42.884;23.918;2022-09-13T00:29:26;95642.88;;;11.97;100.00
41222;BME280;26952;42.884;23.918;2022-09-13T00:31:51;95632.09;;;11.84;100.00
41222;BME280;26952;42.884;23.918;2022-09-13T00:34:17;95636.22;;;11.87;100.00
41222;BME280;26952;42.884;23.918;2022-09-13T00:36:42;95620.69;;;11.69;100.00
41222;BME280;26952;42.884;23.918;2022-09-13T00:39:09;95629.19;;;11.79;100.00
41222;BME280;26952;42.884;23.918;2022-09-13T00:41:34;95637.41;;;11.84;100.00
41222;BME280;26952;42.884;23.918;2022-09-13T00:44:00;95635.47;;;11.93;100.00
41222;BME280;26952;42.884;23.918;2022-09-13T00:48:56;95630.91;;;11.87;100.00
41222;BME280;26952;42.884;23.918;2022-09-13T00:51:24;95640.88;;;11.99;100.00
41222;BME280;26952;42.884;23.918;2022-09-13T00:53:51;95640.31;;;12.04;100.00
41222;BME280;26952;42.884;23.918;2022-09-13T00:56:28;95645.13;;;12.15;100.00
41222;BME280;26952;42.884;23.918;2022-09-13T00:59:07;95641.31;;;12.24;100.00
41222;BME280;26952;42.884;23.918;2022-09-13T01:01:42;95635.03;;;12.25;100.00
41222;BME280;26952;42.884;23.918;2022-09-13T01:04:09;95609.19;;;12.12;100.00
41222;BME280;26952;42.884;23.918;2022-09-13T01:06:36;95633.22;;;12.25;100.00
41222;BME280;26952;42.884;23.918;2022-09-13T01:09:03;95617.16;;;12.12;100.00
41222;BME280;26952;42.884;23.918;2022-09-13T01:11:41;95616.13;;;12.13;100.00
41222;BME280;26952;42.884;23.918;2022-09-13T01:14:09;95616.75;;;12.15;100.00
41222;BME280;26952;42.884;23.918;2022-09-13T01:16:35;95571.09;;;11.84;100.00
41222;BME280;26952;42.884;23.918;2022-09-13T01:19:01;95606.72;;;12.11;100.00
41222;BME280;26952;42.884;23.918;2022-09-13T01:37:53;95615.50;;;12.32;100.00
41222;BME280;26952;42.884;23.918;2022-09-13T01:40:45;95614.84;;;12.30;100.00
41222;BME280;26952;42.884;23.918;2022-09-13T01:44:22;95623.28;;;12.34;100.00
41222;BME280;26952;42.884;23.918;2022-09-13T01:46:50;95601.91;;;12.21;100.00
41222;BME280;26952;42.884;23.918;2022-09-13T01:49:32;95612.59;;;12.27;100.00
41222;BME280;26952;42.884;23.918;2022-09-13T01:52:03;95615.38;;;12.40;100.00
41222;BME280;26952;42.884;23.918;2022-09-13T01:55:06;95599.97;;;12.29;100.00
41222;BME280;26952;42.884;23.918;2022-09-13T01:57:37;95617.22;;;12.40;100.00
41222;BME280;26952;42.884;23.918;2022-09-13T02:00:10;95619.88;;;12.40;100.00
41222;BME280;26952;42.884;23.918;2022-09-13T02:02:40;95610.72;;;12.42;100.00
41222;BME280;26952;42.884;23.918;2022-09-13T02:05:23;95595.16;;;12.39;100.00
41222;BME280;26952;42.884;23.918;2022-09-13T02:07:58;95582.78;;;12.25;100.00
41222;BME280;26952;42.884;23.918;2022-09-13T02:10:26;95617.03;;;12.41;100.00
41222;BME280;26952;42.884;23.918;2022-09-13T02:12:55;95595.94;;;12.33;100.00
41222;BME280;26952;42.884;23.918;2022-09-13T02:15:26;95580.69;;;12.21;100.00
41222;BME280;26952;42.884;23.918;2022-09-13T02:18:04;95606.47;;;12.27;100.00
41222;BME280;26952;42.884;23.918;2022-09-13T02:20:36;95597.22;;;12.23;100.00
41222;BME280;26952;42.884;23.918;2022-09-13T02:23:08;95595.22;;;12.25;100.00
41222;BME280;26952;42.884;23.918;2022-09-13T02:25:35;95602.41;;;12.31;100.00
41222;BME280;26952;42.884;23.918;2022-09-13T02:28:05;95560.72;;;12.04;100.00
41222;BME280;26952;42.884;23.918;2022-09-13T02:30:33;95588.81;;;12.19;100.00
41222;BME280;26952;42.884;23.918;2022-09-13T02:33:23;95572.16;;;12.04;100.00
41222;BME280;26952;42.884;23.918;2022-09-13T02:35:58;95605.56;;;12.20;100.00
41222;BME280;26952;42.884;23.918;2022-09-13T02:38:39;95578.91;;;12.07;100.00
41222;BME280;26952;42.884;23.918;2022-09-13T02:41:13;95601.91;;;12.21;100.00
41222;BME280;26952;42.884;23.918;2022-09-13T02:43:43;95589.63;;;11.99;100.00
41222;BME280;26952;42.884;23.918;2022-09-13T02:46:24;95594.81;;;12.07;100.00
41222;BME280;26952;42.884;23.918;2022-09-13T02:49:20;95604.22;;;12.09;100.00
41222;BME280;26952;42.884;23.918;2022-09-13T02:54:52;95612.75;;;12.05;100.00
41222;BME280;26952;42.884;23.918;2022-09-13T02:59:52;95606.66;;;12.04;100.00
41222;BME280;26952;42.884;23.918;2022-09-13T03:02:20;95602.59;;;12.08;100.00
41222;BME280;26952;42.884;23.918;2022-09-13T03:04:49;95601.28;;;12.19;100.00
41222;BME280;26952;42.884;23.918;2022-09-13T03:07:15;95591.88;;;12.16;100.00
41222;BME280;26952;42.884;23.918;2022-09-13T03:09:56;95545.38;;;11.99;100.00
41222;BME280;26952;42.884;23.918;2022-09-13T03:17:56;95601.97;;;12.27;100.00
41222;BME280;26952;42.884;23.918;2022-09-13T03:20:45;95616.91;;;12.28;100.00
41222;BME280;26952;42.884;23.918;2022-09-13T03:23:31;95608.94;;;12.28;100.00
41222;BME280;26952;42.884;23.918;2022-09-13T03:29:24;95611.34;;;12.23;100.00
41222;BME280;26952;42.884;23.918;2022-09-13T03:31:58;95612.75;;;12.05;100.00
41222;BME280;26952;42.884;23.918;2022-09-13T03:34:50;95602.44;;;11.95;100.00
41222;BME280;26952;42.884;23.918;2022-09-13T03:37:56;95618.75;;;11.92;100.00
41222;BME280;26952;42.884;23.918;2022-09-13T03:40:59;95609.72;;;11.72;100.00
41222;BME280;26952;42.884;23.918;2022-09-13T03:46:04;95617.66;;;11.43;100.00
41222;BME280;26952;42.884;23.918;2022-09-13T03:48:33;95614.19;;;11.57;100.00
41222;BME280;26952;42.884;23.918;2022-09-13T03:51:02;95600.50;;;11.39;100.00
41222;BME280;26952;42.884;23.918;2022-09-13T03:53:29;95601.75;;;11.43;100.00
41222;BME280;26952;42.884;23.918;2022-09-13T03:55:56;95591.25;;;11.50;100.00
41222;BME280;26952;42.884;23.918;2022-09-13T03:58:23;95591.31;;;11.56;100.00
41222;BME280;26952;42.884;23.918;2022-09-13T04:00:49;95614.47;;;11.77;100.00
41222;BME280;26952;42.884;23.918;2022-09-13T04:03:16;95598.88;;;11.88;100.00
41222;BME280;26952;42.884;23.918;2022-09-13T04:05:42;95599.41;;;11.98;100.00
41222;BME280;26952;42.884;23.918;2022-09-13T04:08:07;95588.63;;;12.00;100.00
41222;BME280;26952;42.884;23.918;2022-09-13T04:10:34;95600.91;;;12.22;100.00
41222;BME280;26952;42.884;23.918;2022-09-13T04:13:00;95595.84;;;12.27;100.00
41222;BME280;26952;42.884;23.918;2022-09-13T04:15:26;95612.03;;;12.53;100.00
41222;BME280;26952;42.884;23.918;2022-09-13T04:17:52;95612.59;;;12.70;100.00
41222;BME280;26952;42.884;23.918;2022-09-13T04:20:18;95614.69;;;12.74;100.00
41222;BME280;26952;42.884;23.918;2022-09-13T04:22:55;95602.13;;;12.89;100.00
41222;BME280;26952;42.884;23.918;2022-09-13T04:25:21;95618.63;;;13.06;100.00
41222;BME280;26952;42.884;23.918;2022-09-13T04:27:48;95606.84;;;12.94;100.00
41222;BME280;26952;42.884;23.918;2022-09-13T04:30:13;95616.22;;;12.90;100.00
41222;BME280;26952;42.884;23.918;2022-09-13T04:32:42;95606.19;;;12.85;100.00
41222;BME280;26952;42.884;23.918;2022-09-13T04:35:08;95612.03;;;13.02;100.00
41222;BME280;26952;42.884;23.918;2022-09-13T04:37:33;95610.91;;;13.11;100.00
41222;BME280;26952;42.884;23.918;2022-09-13T04:39:59;95622.47;;;13.24;100.00
41222;BME280;26952;42.884;23.918;2022-09-13T04:42:24;95627.94;;;13.23;100.00
41222;BME280;26952;42.884;23.918;2022-09-13T04:44:50;95627.13;;;13.22;100.00
41222;BME280;26952;42.884;23.918;2022-09-13T04:47:15;95612.38;;;13.20;100.00
41222;BME280;26952;42.884;23.918;2022-09-13T04:49:41;95634.78;;;13.32;100.00
41222;BME280;26952;42.884;23.918;2022-09-13T04:52:06;95629.50;;;13.38;100.00
41222;BME280;26952;42.884;23.918;2022-09-13T04:54:32;95623.25;;;13.25;100.00
41222;BME280;26952;42.884;23.918;2022-09-13T04:56:57;95645.00;;;13.35;100.00
41222;BME280;26952;42.884;23.918;2022-09-13T04:59:25;95641.81;;;13.46;100.00
41222;BME280;26952;42.884;23.918;2022-09-13T05:01:50;95593.69;;;13.41;100.00
41222;BME280;26952;42.884;23.918;2022-09-13T05:04:16;95621.34;;;13.80;100.00
41222;BME280;26952;42.884;23.918;2022-09-13T05:06:41;95615.72;;;14.10;100.00
41222;BME280;26952;42.884;23.918;2022-09-13T05:09:11;95638.75;;;14.30;100.00
41222;BME280;26952;42.884;23.918;2022-09-13T05:11:37;95634.06;;;14.39;100.00
41222;BME280;26952;42.884;23.918;2022-09-13T05:14:03;95639.41;;;14.52;100.00
41222;BME280;26952;42.884;23.918;2022-09-13T05:16:31;95636.38;;;14.81;100.00
41222;BME280;26952;42.884;23.918;2022-09-13T05:18:58;95644.81;;;15.10;100.00
41222;BME280;26952;42.884;23.918;2022-09-13T05:21:24;95648.31;;;15.44;100.00
41222;BME280;26952;42.884;23.918;2022-09-13T05:23:52;95634.50;;;15.66;100.00
41222;BME280;26952;42.884;23.918;2022-09-13T05:26:20;95633.22;;;15.95;100.00
41222;BME280;26952;42.884;23.918;2022-09-13T05:28:46;95652.38;;;16.23;100.00
41222;BME280;26952;42.884;23.918;2022-09-13T05:31:26;95643.28;;;16.43;100.00
41222;BME280;26952;42.884;23.918;2022-09-13T05:33:59;95641.56;;;16.55;100.00
41222;BME280;26952;42.884;23.918;2022-09-13T05:36:26;95651.22;;;16.88;100.00
41222;BME280;26952;42.884;23.918;2022-09-13T05:38:53;95621.16;;;16.99;98.35
41222;BME280;26952;42.884;23.918;2022-09-13T05:41:18;95643.28;;;17.30;100.00
41222;BME280;26952;42.884;23.918;2022-09-13T05:43:44;95648.22;;;17.33;100.00
41222;BME280;26952;42.884;23.918;2022-09-13T05:46:14;95636.53;;;17.03;97.86
41222;BME280;26952;42.884;23.918;2022-09-13T05:48:40;95642.75;;;16.97;100.00
41222;BME280;26952;42.884;23.918;2022-09-13T05:53:37;95649.81;;;16.54;100.00
41222;BME280;26952;42.884;23.918;2022-09-13T05:56:05;95630.13;;;16.42;100.00
41222;BME280;26952;42.884;23.918;2022-09-13T05:58:31;95648.94;;;16.60;100.00
41222;BME280;26952;42.884;23.918;2022-09-13T06:00:57;95640.09;;;16.66;100.00
41222;BME280;26952;42.884;23.918;2022-09-13T06:03:23;95624.69;;;16.62;100.00
41222;BME280;26952;42.884;23.918;2022-09-13T06:05:49;95627.78;;;16.58;100.00
41222;BME280;26952;42.884;23.918;2022-09-13T06:08:18;95639.38;;;16.77;100.00
41222;BME280;26952;42.884;23.918;2022-09-13T06:10:52;95603.53;;;16.85;100.00
41222;BME280;26952;42.884;23.918;2022-09-13T06:13:18;95626.69;;;17.22;100.00
41222;BME280;26952;42.884;23.918;2022-09-13T06:15:43;95604.09;;;17.42;100.00
41222;BME280;26952;42.884;23.918;2022-09-13T06:18:08;95650.66;;;18.20;100.00
41222;BME280;26952;42.884;23.918;2022-09-13T06:20:34;95660.31;;;18.57;95.41
41222;BME280;26952;42.884;23.918;2022-09-13T06:22:59;95627.16;;;18.52;93.19
41222;BME280;26952;42.884;23.918;2022-09-13T06:25:25;95643.47;;;19.09;89.33
41222;BME280;26952;42.884;23.918;2022-09-13T06:27:50;95649.25;;;19.36;85.94
41222;BME280;26952;42.884;23.918;2022-09-13T06:30:15;95665.53;;;19.23;82.06
41222;BME280;26952;42.884;23.918;2022-09-13T06:32:41;95638.09;;;19.21;86.69
41222;BME280;26952;42.884;23.918;2022-09-13T06:35:07;95666.91;;;19.78;79.97
41222;BME280;26952;42.884;23.918;2022-09-13T06:37:32;95664.91;;;20.08;77.03
41222;BME280;26952;42.884;23.918;2022-09-13T06:39:58;95666.78;;;19.50;71.78
41222;BME280;26952;42.884;23.918;2022-09-13T06:42:23;95673.91;;;19.56;75.29
41222;BME280;26952;42.884;23.918;2022-09-13T06:44:48;95626.19;;;19.05;73.21
41222;BME280;26952;42.884;23.918;2022-09-13T06:47:14;95666.53;;;19.40;76.23
41222;BME280;26952;42.884;23.918;2022-09-13T06:49:39;95675.41;;;18.99;70.67
41222;BME280;26952;42.884;23.918;2022-09-13T06:52:05;95654.50;;;18.90;73.65
41222;BME280;26952;42.884;23.918;2022-09-13T06:54:30;95675.22;;;18.83;77.06
41222;BME280;26952;42.884;23.918;2022-09-13T06:56:56;95670.16;;;19.04;74.22
41222;BME280;26952;42.884;23.918;2022-09-13T06:59:21;95684.06;;;19.54;70.70
41222;BME280;26952;42.884;23.918;2022-09-13T07:01:47;95679.03;;;20.38;74.98
41222;BME280;26952;42.884;23.918;2022-09-13T07:04:15;95677.63;;;20.36;68.57
41222;BME280;26952;42.884;23.918;2022-09-13T07:06:43;95679.63;;;20.17;72.93
41222;BME280;26952;42.884;23.918;2022-09-13T07:09:14;95670.41;;;19.90;68.45
41222;BME280;26952;42.884;23.918;2022-09-13T07:11:43;95696.81;;;19.82;66.64
41222;BME280;26952;42.884;23.918;2022-09-13T07:14:17;95703.47;;;19.26;67.15
41222;BME280;26952;42.884;23.918;2022-09-13T07:16:43;95697.41;;;18.90;78.08
41222;BME280;26952;42.884;23.918;2022-09-13T07:19:17;95708.28;;;18.95;77.09
41222;BME280;26952;42.884;23.918;2022-09-13T07:21:42;95693.63;;;19.39;74.31
41222;BME280;26952;42.884;23.918;2022-09-13T07:24:08;95702.88;;;19.66;70.02
41222;BME280;26952;42.884;23.918;2022-09-13T07:26:34;95695.50;;;19.84;69.09
41222;BME280;26952;42.884;23.918;2022-09-13T07:29:03;95711.88;;;19.94;63.92
41222;BME280;26952;42.884;23.918;2022-09-13T07:31:31;95711.75;;;20.35;63.37
41222;BME280;26952;42.884;23.918;2022-09-13T07:34:03;95711.75;;;20.12;59.07
41222;BME280;26952;42.884;23.918;2022-09-13T07:36:30;95703.25;;;19.92;60.59
41222;BME280;26952;42.884;23.918;2022-09-13T07:38:56;95688.28;;;20.08;66.54
41222;BME280;26952;42.884;23.918;2022-09-13T07:41:24;95717.53;;;20.67;62.14
41222;BME280;26952;42.884;23.918;2022-09-13T07:43:50;95667.25;;;20.28;58.15
41222;BME280;26952;42.884;23.918;2022-09-13T07:46:26;95718.75;;;20.48;63.06
41222;BME280;26952;42.884;23.918;2022-09-13T07:48:54;95717.91;;;20.47;62.97
41222;BME280;26952;42.884;23.918;2022-09-13T07:51:25;95717.38;;;20.34;62.09
41222;BME280;26952;42.884;23.918;2022-09-13T07:53:54;95728.16;;;20.22;67.80
41222;BME280;26952;42.884;23.918;2022-09-13T07:56:27;95728.13;;;20.11;64.02
41222;BME280;26952;42.884;23.918;2022-09-13T07:58:53;95699.03;;;19.73;60.80
41222;BME280;26952;42.884;23.918;2022-09-13T08:01:24;95718.91;;;19.95;64.03
41222;BME280;26952;42.884;23.918;2022-09-13T08:03:55;95715.38;;;19.83;62.02
41222;BME280;26952;42.884;23.918;2022-09-13T08:06:21;95683.13;;;19.60;63.72
41222;BME280;26952;42.884;23.918;2022-09-13T08:08:47;95725.06;;;19.84;63.16
41222;BME280;26952;42.884;23.918;2022-09-13T08:11:16;95722.19;;;19.86;67.34
41222;BME280;26952;42.884;23.918;2022-09-13T08:13:43;95708.00;;;19.67;63.81
41222;BME280;26952;42.884;23.918;2022-09-13T08:16:09;95705.78;;;19.64;61.40
41222;BME280;26952;42.884;23.918;2022-09-13T08:18:34;95738.16;;;19.81;62.58
41222;BME280;26952;42.884;23.918;2022-09-13T08:21:00;95717.94;;;19.78;67.73
41222;BME280;26952;42.884;23.918;2022-09-13T08:23:26;95715.00;;;19.68;61.73
41222;BME280;26952;42.884;23.918;2022-09-13T08:25:52;95715.25;;;19.78;67.57
41222;BME280;26952;42.884;23.918;2022-09-13T08:28:19;95708.94;;;19.61;64.52
41222;BME280;26952;42.884;23.918;2022-09-13T08:30:48;95715.81;;;19.57;67.75
41222;BME280;26952;42.884;23.918;2022-09-13T08:33:15;95736.84;;;19.60;65.73
41222;BME280;26952;42.884;23.918;2022-09-13T08:35:48;95734.63;;;19.57;67.07
41222;BME280;26952;42.884;23.918;2022-09-13T08:38:14;95722.16;;;19.74;70.89
41222;BME280;26952;42.884;23.918;2022-09-13T08:40:41;95715.59;;;19.70;70.72
41222;BME280;26952;42.884;23.918;2022-09-13T08:43:14;95730.34;;;19.79;65.85
41222;BME280;26952;42.884;23.918;2022-09-13T08:45:49;95715.84;;;19.80;65.42
41222;BME280;26952;42.884;23.918;2022-09-13T08:48:18;95734.72;;;19.51;61.74
41222;BME280;26952;42.884;23.918;2022-09-13T08:50:45;95736.03;;;19.83;62.98
41222;BME280;26952;42.884;23.918;2022-09-13T08:53:25;95727.41;;;20.04;64.42
41222;BME280;26952;42.884;23.918;2022-09-13T08:56:12;95729.22;;;20.21;60.78
41222;BME280;26952;42.884;23.918;2022-09-13T08:58:44;95725.97;;;20.59;66.67
41222;BME280;26952;42.884;23.918;2022-09-13T09:01:32;95720.78;;;20.81;63.50
41222;BME280;26952;42.884;23.918;2022-09-13T09:06:43;95721.00;;;21.19;64.69
41222;BME280;26952;42.884;23.918;2022-09-13T09:09:16;95714.16;;;21.28;55.55
41222;BME280;26952;42.884;23.918;2022-09-13T09:11:50;95724.59;;;21.24;52.19
41222;BME280;26952;42.884;23.918;2022-09-13T09:17:01;95726.31;;;21.30;52.13
41222;BME280;26952;42.884;23.918;2022-09-13T09:19:33;95704.06;;;21.35;55.69
41222;BME280;26952;42.884;23.918;2022-09-13T09:22:16;95703.59;;;21.38;55.96
41222;BME280;26952;42.884;23.918;2022-09-13T09:24:45;95679.56;;;21.53;56.80
41222;BME280;26952;42.884;23.918;2022-09-13T09:27:17;95701.44;;;21.84;60.20
41222;BME280;26952;42.884;23.918;2022-09-13T09:29:48;95695.38;;;21.77;52.87
41222;BME280;26952;42.884;23.918;2022-09-13T09:37:30;95656.31;;;23.58;49.80
41222;BME280;26952;42.884;23.918;2022-09-13T09:40:01;95659.06;;;23.63;51.17
41222;BME280;26952;42.884;23.918;2022-09-13T09:42:31;95661.06;;;23.41;46.71
41222;BME280;26952;42.884;23.918;2022-09-13T09:45:04;95645.44;;;23.84;47.82
41222;BME280;26952;42.884;23.918;2022-09-13T09:47:47;95655.50;;;24.30;48.28
41222;BME280;26952;42.884;23.918;2022-09-13T09:50:16;95650.03;;;24.67;46.76
41222;BME280;26952;42.884;23.918;2022-09-13T09:53:00;95639.03;;;25.14;48.21
41222;BME280;26952;42.884;23.918;2022-09-13T09:58:00;95641.81;;;25.84;44.11
41222;BME280;26952;42.884;23.918;2022-09-13T10:00:32;95642.25;;;24.96;38.66
41222;BME280;26952;42.884;23.918;2022-09-13T10:03:04;95626.84;;;23.56;41.98
41222;BME280;26952;42.884;23.918;2022-09-13T10:05:33;95639.69;;;23.12;44.58
41222;BME280;26952;42.884;23.918;2022-09-13T10:08:06;95637.28;;;22.89;43.28
41222;BME280;26952;42.884;23.918;2022-09-13T10:10:42;95640.31;;;22.71;46.11
41222;BME280;26952;42.884;23.918;2022-09-13T10:13:18;95648.16;;;22.73;44.25
41222;BME280;26952;42.884;23.918;2022-09-13T10:15:57;95643.00;;;22.50;44.48
41222;BME280;26952;42.884;23.918;2022-09-13T10:18:24;95652.63;;;22.62;45.85
41222;BME280;26952;42.884;23.918;2022-09-13T10:21:00;95647.56;;;22.66;47.64
41222;BME280;26952;42.884;23.918;2022-09-13T10:23:26;95639.97;;;22.25;44.61
41222;BME280;26952;42.884;23.918;2022-09-13T10:26:24;95639.00;;;22.52;45.17
41222;BME280;26952;42.884;23.918;2022-09-13T10:29:12;95634.63;;;23.21;41.28
41222;BME280;26952;42.884;23.918;2022-09-13T10:31:42;95627.09;;;23.55;45.92
41222;BME280;26952;42.884;23.918;2022-09-13T10:34:22;95619.16;;;22.85;42.92
41222;BME280;26952;42.884;23.918;2022-09-13T10:39:18;95609.97;;;21.78;43.25
41222;BME280;26952;42.884;23.918;2022-09-13T10:41:52;95610.63;;;22.28;45.30
41222;BME280;26952;42.884;23.918;2022-09-13T10:47:05;95613.56;;;24.33;43.72
41222;BME280;26952;42.884;23.918;2022-09-13T10:49:58;95626.06;;;24.44;41.04
41222;BME280;26952;42.884;23.918;2022-09-13T10:52:41;95593.53;;;24.34;40.12
41222;BME280;26952;42.884;23.918;2022-09-13T10:57:49;95567.84;;;24.36;39.84
41222;BME280;26952;42.884;23.918;2022-09-13T11:00:25;95601.53;;;24.04;40.36
41222;BME280;26952;42.884;23.918;2022-09-13T11:11:28;95578.38;;;24.28;39.35
41222;BME280;26952;42.884;23.918;2022-09-13T11:17:15;95596.41;;;24.74;36.44
41222;BME280;26952;42.884;23.918;2022-09-13T11:23:16;95600.00;;;24.23;37.43
41222;BME280;26952;42.884;23.918;2022-09-13T11:26:25;95581.66;;;24.45;37.47
41222;BME280;26952;42.884;23.918;2022-09-13T11:31:58;95591.34;;;24.98;39.20
41222;BME280;26952;42.884;23.918;2022-09-13T11:39:58;95571.47;;;23.59;39.81
41222;BME280;26952;42.884;23.918;2022-09-13T11:45:26;95573.47;;;23.37;40.87
41222;BME280;26952;42.884;23.918;2022-09-13T11:53:46;95574.50;;;24.09;38.69
41222;BME280;26952;42.884;23.918;2022-09-13T11:56:32;95578.44;;;23.96;40.50
41222;BME280;26952;42.884;23.918;2022-09-13T12:01:37;95543.78;;;24.45;40.25
41222;BME280;26952;42.884;23.918;2022-09-13T12:04:31;95579.09;;;24.90;38.17
41222;BME280;26952;42.884;23.918;2022-09-13T12:07:00;95555.81;;;24.79;36.44
41222;BME280;26952;42.884;23.918;2022-09-13T12:09:31;95558.78;;;24.78;36.01
41222;BME280;26952;42.884;23.918;2022-09-13T12:12:04;95562.28;;;24.68;39.64
41222;BME280;26952;42.884;23.918;2022-09-13T12:14:40;95560.88;;;24.55;35.46
41222;BME280;26952;42.884;23.918;2022-09-13T12:17:26;95550.09;;;24.76;37.93
41222;BME280;26952;42.884;23.918;2022-09-13T12:19:55;95545.97;;;24.43;35.80
41222;BME280;26952;42.884;23.918;2022-09-13T12:22:27;95557.97;;;24.77;35.65
41222;BME280;26952;42.884;23.918;2022-09-13T12:24:55;95550.34;;;24.64;35.58
41222;BME280;26952;42.884;23.918;2022-09-13T12:27:27;95554.75;;;24.13;35.24
41222;BME280;26952;42.884;23.918;2022-09-13T12:30:04;95544.84;;;24.39;37.27
41222;BME280;26952;42.884;23.918;2022-09-13T12:32:30;95549.31;;;24.80;35.86
41222;BME280;26952;42.884;23.918;2022-09-13T12:35:09;95533.06;;;24.95;34.44
41222;BME280;26952;42.884;23.918;2022-09-13T12:56:01;95537.38;;;22.89;39.22
41222;BME280;26952;42.884;23.918;2022-09-13T12:59:00;95546.66;;;22.50;40.52
41222;BME280;26952;42.884;23.918;2022-09-13T13:01:30;95525.19;;;22.34;41.29
41222;BME280;26952;42.884;23.918;2022-09-13T13:04:15;95539.34;;;22.67;39.00
41222;BME280;26952;42.884;23.918;2022-09-13T13:06:58;95482.84;;;22.34;39.71
41222;BME280;26952;42.884;23.918;2022-09-13T13:09:40;95545.13;;;22.33;38.89
41222;BME280;26952;42.884;23.918;2022-09-13T13:12:25;95533.13;;;22.45;40.06
41222;BME280;26952;42.884;23.918;2022-09-13T13:14:51;95536.94;;;22.71;42.53
41222;BME280;26952;42.884;23.918;2022-09-13T13:17:43;95541.00;;;22.47;39.28
41222;BME280;26952;42.884;23.918;2022-09-13T13:23:34;95532.34;;;22.02;41.10
41222;BME280;26952;42.884;23.918;2022-09-13T13:26:41;95544.53;;;22.26;43.18
41222;BME280;26952;42.884;23.918;2022-09-13T13:39:41;95531.72;;;22.38;41.84
41222;BME280;26952;42.884;23.918;2022-09-13T13:42:27;95526.00;;;22.34;40.42
41222;BME280;26952;42.884;23.918;2022-09-13T13:50:11;95533.78;;;22.52;40.45
41222;BME280;26952;42.884;23.918;2022-09-13T13:52:40;95545.72;;;22.13;40.56
41222;BME280;26952;42.884;23.918;2022-09-13T13:55:44;95535.22;;;21.90;41.10
41222;BME280;26952;42.884;23.918;2022-09-13T13:58:29;95547.34;;;22.14;41.53
41222;BME280;26952;42.884;23.918;2022-09-13T14:00:58;95555.81;;;22.23;43.06
41222;BME280;26952;42.884;23.918;2022-09-13T14:03:30;95554.25;;;22.05;42.69
41222;BME280;26952;42.884;23.918;2022-09-13T14:06:07;95539.19;;;21.87;42.68
41222;BME280;26952;42.884;23.918;2022-09-13T14:08:57;95546.91;;;21.79;42.51
41222;BME280;26952;42.884;23.918;2022-09-13T14:14:31;95558.88;;;21.33;45.52
41222;BME280;26952;42.884;23.918;2022-09-13T14:19:58;95555.66;;;21.53;46.66
41222;BME280;26952;42.884;23.918;2022-09-13T14:22:27;95566.91;;;21.66;48.58
41222;BME280;26952;42.884;23.918;2022-09-13T14:24:58;95556.31;;;21.60;49.18
41222;BME280;26952;42.884;23.918;2022-09-13T14:27:39;95555.47;;;21.59;56.08
41222;BME280;26952;42.884;23.918;2022-09-13T14:30:33;95572.94;;;21.73;54.28
41222;BME280;26952;42.884;23.918;2022-09-13T14:32:59;95551.38;;;21.73;53.65
41222;BME280;26952;42.884;23.918;2022-09-13T14:35:36;95562.16;;;21.90;54.47
41222;BME280;26952;42.884;23.918;2022-09-13T14:38:23;95552.13;;;22.07;53.70
41222;BME280;26952;42.884;23.918;2022-09-13T14:40:51;95557.31;;;22.35;51.66
41222;BME280;26952;42.884;23.918;2022-09-13T14:43:22;95551.09;;;22.35;51.40
41222;BME280;26952;42.884;23.918;2022-09-13T14:51:00;95537.50;;;22.25;52.30
41222;BME280;26952;42.884;23.918;2022-09-13T14:53:30;95554.94;;;22.17;53.01
41222;BME280;26952;42.884;23.918;2022-09-13T14:56:01;95543.84;;;21.92;53.89
41222;BME280;26952;42.884;23.918;2022-09-13T14:58:37;95545.16;;;21.89;56.84
41222;BME280;26952;42.884;23.918;2022-09-13T15:01:09;95550.09;;;21.76;58.31
41222;BME280;26952;42.884;23.918;2022-09-13T15:03:35;95556.81;;;21.57;59.04
41222;BME280;26952;42.884;23.918;2022-09-13T15:06:03;95559.31;;;21.09;58.55
41222;BME280;26952;42.884;23.918;2022-09-13T15:11:03;95531.13;;;20.38;60.79
41222;BME280;26952;42.884;23.918;2022-09-13T15:13:30;95561.91;;;20.31;61.42
41222;BME280;26952;42.884;23.918;2022-09-13T15:15:56;95572.59;;;20.14;62.80
41222;BME280;26952;42.884;23.918;2022-09-13T15:18:29;95564.66;;;19.96;65.19
41222;BME280;26952;42.884;23.918;2022-09-13T15:21:01;95561.47;;;19.71;66.40
41222;BME280;26952;42.884;23.918;2022-09-13T15:23:31;95555.28;;;19.48;67.61
41222;BME280;26952;42.884;23.918;2022-09-13T15:26:12;95567.75;;;19.19;70.60
41222;BME280;26952;42.884;23.918;2022-09-13T15:31:11;95557.88;;;18.67;72.70
41222;BME280;26952;42.884;23.918;2022-09-13T15:33:43;95554.28;;;18.43;75.55
41222;BME280;26952;42.884;23.918;2022-09-13T15:39:01;95563.50;;;17.99;79.05